createdAt,value
2018-12-26T00:02:26.607Z,71.06
2018-12-26T00:05:19.579Z,70.54
2018-12-26T00:08:01.440Z,70.28
2018-12-26T00:10:55.751Z,70.33
2018-12-26T00:16:28.262Z,70.69
2018-12-26T00:19:13.585Z,70.20
2018-12-26T00:21:52.014Z,70.44
2018-12-26T00:24:36.585Z,70.84
2018-12-26T00:27:15.352Z,71.06
2018-12-26T00:30:11.475Z,70.88
2018-12-26T00:32:53.765Z,69.85
2018-12-26T00:35:34.683Z,69.89
2018-12-26T00:38:07.442Z,69.82
2018-12-26T00:40:45.025Z,69.98
2018-12-26T00:43:19.568Z,70.81
2018-12-26T00:45:56.653Z,70.62
2018-12-26T00:48:25.607Z,70.12
2018-12-26T00:51:06.003Z,70.06
2018-12-26T00:53:53.561Z,70.14
2018-12-26T00:56:31.893Z,69.88
2018-12-26T00:59:03.647Z,69.58
2018-12-26T01:01:47.575Z,67.99
2018-12-26T01:04:27.187Z,67.91
2018-12-26T01:07:10.940Z,66.55
2018-12-26T01:09:51.660Z,67.56
2018-12-26T01:12:39.176Z,66.98
2018-12-26T01:15:21.038Z,67.11
2018-12-26T01:18:06.548Z,67.79
2018-12-26T01:20:47.683Z,67.80
2018-12-26T01:23:20.896Z,68.01
2018-12-26T01:25:54.227Z,68.28
2018-12-26T01:28:56.051Z,69.15
2018-12-26T01:31:38.727Z,69.56
2018-12-26T01:34:08.198Z,69.43
2018-12-26T01:36:49.610Z,70.00
2018-12-26T01:39:36.132Z,69.14
2018-12-26T01:42:14.335Z,68.67
2018-12-26T01:44:54.261Z,68.81
2018-12-26T01:47:26.285Z,69.33
2018-12-26T01:50:03.047Z,68.48
2018-12-26T01:52:45.176Z,67.91
2018-12-26T01:55:23.135Z,67.62
2018-12-26T01:57:56.219Z,67.33
2018-12-26T02:00:31.638Z,67.42
2018-12-26T02:03:12.655Z,67.40
2018-12-26T02:05:40.235Z,67.17
2018-12-26T02:08:17.727Z,67.79
2018-12-26T02:11:05.393Z,68.02
2018-12-26T02:13:44.487Z,67.01
2018-12-26T02:16:40.965Z,67.89
2018-12-26T02:19:21.141Z,67.88
2018-12-26T02:21:55.882Z,67.83
2018-12-26T02:27:23.202Z,68.61
2018-12-26T02:30:01.489Z,68.21
2018-12-26T02:32:46.314Z,67.06
2018-12-26T02:35:22.303Z,67.39
2018-12-26T02:37:57.180Z,67.19
2018-12-26T02:40:42.022Z,67.49
2018-12-26T02:43:18.310Z,67.64
2018-12-26T02:46:00.522Z,67.91
2018-12-26T02:48:38.863Z,67.66
2018-12-26T02:51:16.579Z,68.01
2018-12-26T02:53:53.637Z,69.13
2018-12-26T02:56:32.934Z,70.09
2018-12-26T02:59:10.396Z,70.90
2018-12-26T03:01:48.343Z,73.85
2018-12-26T03:04:21.781Z,74.15
2018-12-26T03:06:54.910Z,75.19
2018-12-26T03:09:37.986Z,75.80
2018-12-26T03:12:15.144Z,76.64
2018-12-26T03:15:03.610Z,77.16
2018-12-26T03:17:42.248Z,77.45
2018-12-26T03:20:15.994Z,77.47
2018-12-26T03:23:15.223Z,77.61
2018-12-26T03:25:39.280Z,77.35
2018-12-26T03:28:19.661Z,76.95
2018-12-26T03:30:55.652Z,77.13
2018-12-26T03:33:34.281Z,77.50
2018-12-26T03:36:18.514Z,78.09
2018-12-26T03:38:49.060Z,77.42
2018-12-26T03:41:31.250Z,77.40
2018-12-26T03:44:06.414Z,77.19
2018-12-26T03:46:47.057Z,76.61
2018-12-26T03:49:47.882Z,77.00
2018-12-26T03:52:18.220Z,76.90
2018-12-26T03:54:54.815Z,77.34
2018-12-26T03:57:52.370Z,76.89
2018-12-26T04:00:25.571Z,77.01
2018-12-26T04:03:11.873Z,77.49
2018-12-26T04:06:09.025Z,77.97
2018-12-26T04:08:57.962Z,78.41
2018-12-26T04:11:36.139Z,77.83
2018-12-26T04:14:13.312Z,77.21
2018-12-26T04:16:56.925Z,76.50
2018-12-26T04:19:28.121Z,76.37
2018-12-26T04:22:00.188Z,76.32
2018-12-26T04:24:47.000Z,76.50
2018-12-26T04:27:26.989Z,76.47
2018-12-26T04:30:12.004Z,76.45
2018-12-26T04:32:59.524Z,76.61
2018-12-26T04:35:31.381Z,76.68
2018-12-26T04:38:05.678Z,77.00
2018-12-26T04:40:39.881Z,76.65
2018-12-26T04:43:17.347Z,76.66
2018-12-26T04:45:59.201Z,76.76
2018-12-26T04:48:42.102Z,77.14
2018-12-26T04:51:20.578Z,77.52
2018-12-26T04:53:53.553Z,77.50
2018-12-26T04:56:27.618Z,77.53
2018-12-26T04:59:10.862Z,76.97
2018-12-26T05:01:53.103Z,76.60
2018-12-26T05:04:20.294Z,76.61
2018-12-26T05:07:01.441Z,76.92
2018-12-26T05:09:41.201Z,76.75
2018-12-26T05:12:21.128Z,77.06
2018-12-26T05:14:58.673Z,76.53
2018-12-26T05:17:44.648Z,76.20
2018-12-26T05:20:22.546Z,76.61
2018-12-26T05:23:09.785Z,77.20
2018-12-26T05:25:52.877Z,77.25
2018-12-26T05:28:39.925Z,77.50
2018-12-26T05:31:31.732Z,77.75
2018-12-26T05:34:25.085Z,77.88
2018-12-26T05:37:02.280Z,78.07
2018-12-26T05:39:38.039Z,78.38
2018-12-26T05:42:16.403Z,78.23
2018-12-26T05:45:02.413Z,78.10
2018-12-26T05:47:39.704Z,77.99
2018-12-26T05:50:11.136Z,77.91
2018-12-26T05:52:45.624Z,77.93
2018-12-26T05:55:19.794Z,77.89
2018-12-26T05:58:08.570Z,77.24
2018-12-26T06:00:51.357Z,76.70
2018-12-26T06:03:24.060Z,76.30
2018-12-26T06:05:59.014Z,75.84
2018-12-26T06:08:33.959Z,75.36
2018-12-26T06:11:11.502Z,74.74
2018-12-26T06:13:48.432Z,74.31
2018-12-26T06:16:29.195Z,74.22
2018-12-26T06:19:13.813Z,74.25
2018-12-26T06:21:48.697Z,74.70
2018-12-26T06:24:29.445Z,74.56
2018-12-26T06:27:10.245Z,73.88
2018-12-26T06:29:46.307Z,72.66
2018-12-26T06:32:19.566Z,72.28
2018-12-26T06:35:03.340Z,72.72
2018-12-26T06:37:42.743Z,73.31
2018-12-26T06:40:20.923Z,73.65
2018-12-26T06:42:56.500Z,73.67
2018-12-26T06:45:29.531Z,74.08
2018-12-26T06:48:14.396Z,73.17
2018-12-26T06:50:53.273Z,73.25
2018-12-26T06:53:25.091Z,72.73
2018-12-26T06:55:57.219Z,73.08
2018-12-26T06:58:30.498Z,72.50
2018-12-26T07:01:09.555Z,71.32
2018-12-26T07:03:53.136Z,70.47
2018-12-26T07:06:26.483Z,69.91
2018-12-26T07:09:03.456Z,69.63
2018-12-26T07:11:40.457Z,69.29
2018-12-26T07:14:18.962Z,68.18
2018-12-26T07:16:55.390Z,68.40
2018-12-26T07:19:36.255Z,68.93
2018-12-26T07:22:14.198Z,68.53
2018-12-26T07:28:09.186Z,68.45
2018-12-26T07:30:44.458Z,68.31
2018-12-26T07:33:22.785Z,67.05
2018-12-26T07:36:03.352Z,67.81
2018-12-26T07:38:46.300Z,67.16
2018-12-26T07:41:41.217Z,66.86
2018-12-26T07:44:20.844Z,67.79
2018-12-26T07:47:08.057Z,70.14
2018-12-26T07:50:01.984Z,70.53
2018-12-26T07:52:50.284Z,70.48
2018-12-26T07:55:21.686Z,69.61
2018-12-26T07:57:57.342Z,69.82
2018-12-26T08:00:44.906Z,70.05
2018-12-26T08:03:31.158Z,67.92
2018-12-26T08:06:09.742Z,67.15
2018-12-26T08:08:44.122Z,66.93
2018-12-26T08:11:31.238Z,67.30
2018-12-26T08:14:16.440Z,67.68
2018-12-26T08:16:53.262Z,67.33
2018-12-26T08:19:39.662Z,67.65
2018-12-26T08:22:18.422Z,67.73
2018-12-26T08:24:54.497Z,67.99
2018-12-26T08:27:29.929Z,66.46
2018-12-26T08:30:02.564Z,65.35
2018-12-26T08:32:45.254Z,65.78
2018-12-26T08:35:22.893Z,67.32
2018-12-26T08:38:02.517Z,67.01
2018-12-26T08:40:38.218Z,67.02
2018-12-26T08:43:17.116Z,66.95
2018-12-26T08:45:49.929Z,66.33
2018-12-26T08:48:41.865Z,65.00
2018-12-26T08:51:19.014Z,63.04
2018-12-26T08:53:56.659Z,63.39
2018-12-26T08:56:36.691Z,63.21
2018-12-26T08:59:13.487Z,62.97
2018-12-26T09:01:48.022Z,63.36
2018-12-26T09:04:25.923Z,61.93
2018-12-26T09:07:08.245Z,60.81
2018-12-26T09:09:46.261Z,60.93
2018-12-26T09:12:23.687Z,56.39
2018-12-26T09:15:01.502Z,54.81
2018-12-26T09:17:34.689Z,53.79
2018-12-26T09:20:18.187Z,53.92
2018-12-26T09:23:03.085Z,53.80
2018-12-26T09:25:45.635Z,54.11
2018-12-26T09:28:20.299Z,53.77
2018-12-26T09:30:57.593Z,54.55
2018-12-26T09:33:34.971Z,53.76
2018-12-26T09:36:09.714Z,53.82
2018-12-26T09:38:44.190Z,53.35
2018-12-26T09:41:31.682Z,53.40
2018-12-26T09:44:17.769Z,53.12
2018-12-26T09:46:53.696Z,53.15
2018-12-26T09:49:29.612Z,53.40
2018-12-26T09:52:03.493Z,52.99
2018-12-26T09:54:40.571Z,53.29
2018-12-26T09:57:22.532Z,53.09
2018-12-26T10:00:04.962Z,52.61
2018-12-26T10:02:42.969Z,52.21
2018-12-26T10:05:18.443Z,52.05
2018-12-26T10:07:59.904Z,52.76
2018-12-26T10:10:31.245Z,51.80
2018-12-26T10:13:01.374Z,51.49
2018-12-26T10:15:37.405Z,51.82
2018-12-26T10:18:11.574Z,51.74
2018-12-26T10:20:58.347Z,50.75
2018-12-26T10:23:42.781Z,50.55
2018-12-26T10:26:12.323Z,50.60
2018-12-26T10:28:50.212Z,48.62
2018-12-26T10:31:23.620Z,49.08
2018-12-26T10:34:07.369Z,49.33
2018-12-26T10:36:43.412Z,48.57
2018-12-26T10:39:21.325Z,48.27
2018-12-26T10:42:01.403Z,49.09
2018-12-26T10:44:44.118Z,47.52
2018-12-26T10:47:23.113Z,47.41
2018-12-26T10:49:54.171Z,45.39
2018-12-26T10:52:27.125Z,44.88
2018-12-26T10:55:03.812Z,45.01
2018-12-26T10:57:43.602Z,44.72
2018-12-26T11:00:28.360Z,44.40
2018-12-26T11:03:04.659Z,45.56
2018-12-26T11:05:46.035Z,43.25
2018-12-26T11:08:31.081Z,43.47
2018-12-26T11:11:09.637Z,44.20
2018-12-26T11:13:48.099Z,44.80
2018-12-26T11:16:31.201Z,44.88
2018-12-26T11:19:04.205Z,43.46
2018-12-26T11:21:44.903Z,43.00
2018-12-26T11:24:20.081Z,43.12
2018-12-26T11:26:59.534Z,43.31
2018-12-26T11:29:40.548Z,42.66
2018-12-26T11:32:18.369Z,43.15
2018-12-26T11:34:56.783Z,42.90
2018-12-26T11:37:39.943Z,43.22
2018-12-26T11:40:13.038Z,43.33
2018-12-26T11:42:53.979Z,43.32
2018-12-26T11:45:41.603Z,43.05
2018-12-26T11:48:15.766Z,42.55
2018-12-26T11:50:53.956Z,41.78
2018-12-26T11:53:37.037Z,42.13
2018-12-26T11:56:16.589Z,42.06
2018-12-26T11:58:48.519Z,43.82
2018-12-26T12:01:27.350Z,41.99
2018-12-26T12:04:00.317Z,41.60
2018-12-26T12:06:48.454Z,43.10
2018-12-26T12:09:21.307Z,41.37
2018-12-26T12:12:02.990Z,40.94
2018-12-26T12:14:49.236Z,41.96
2018-12-26T12:17:30.392Z,40.24
2018-12-26T12:20:10.493Z,42.02
2018-12-26T12:22:44.900Z,41.67
2018-12-26T12:25:24.488Z,41.11
2018-12-26T12:28:02.636Z,40.67
2018-12-26T12:30:49.843Z,41.15
2018-12-26T12:33:21.147Z,40.87
2018-12-26T12:36:05.333Z,40.67
2018-12-26T12:38:46.014Z,42.28
2018-12-26T12:41:17.595Z,42.92
2018-12-26T12:43:58.795Z,41.66
2018-12-26T12:46:30.418Z,40.73
2018-12-26T12:49:08.998Z,41.59
2018-12-26T12:51:46.300Z,40.85
2018-12-26T12:54:25.755Z,41.44
2018-12-26T12:57:17.817Z,40.89
2018-12-26T13:00:16.618Z,41.02
2018-12-26T13:03:04.009Z,40.50
2018-12-26T13:05:45.953Z,41.27
2018-12-26T13:08:21.983Z,41.62
2018-12-26T13:10:57.336Z,41.14
2018-12-26T13:13:32.860Z,40.47
2018-12-26T13:16:10.831Z,41.27
2018-12-26T13:18:47.250Z,41.17
2018-12-26T13:21:46.738Z,42.09
2018-12-26T13:24:21.808Z,43.17
2018-12-26T13:27:12.450Z,43.74
2018-12-26T13:29:58.644Z,41.30
2018-12-26T13:32:45.011Z,42.75
2018-12-26T13:35:15.017Z,42.11
2018-12-26T13:37:50.252Z,43.17
2018-12-26T13:40:30.041Z,42.56
2018-12-26T13:43:13.742Z,43.16
2018-12-26T13:45:49.733Z,42.79
2018-12-26T13:48:25.624Z,42.73
2018-12-26T13:51:04.149Z,42.77
2018-12-26T13:53:48.079Z,42.68
2018-12-26T13:56:28.781Z,43.26
2018-12-26T13:59:10.620Z,43.75
2018-12-26T14:01:47.933Z,43.39
2018-12-26T14:04:29.941Z,42.21
2018-12-26T14:07:02.511Z,43.19
2018-12-26T14:09:42.200Z,43.20
2018-12-26T14:12:15.895Z,43.39
2018-12-26T14:15:01.642Z,42.71
2018-12-26T14:17:33.828Z,42.80
2018-12-26T14:20:20.863Z,42.89
2018-12-26T14:22:59.947Z,42.44
2018-12-26T14:25:37.921Z,42.17
2018-12-26T14:28:22.234Z,41.48
2018-12-26T14:31:00.850Z,40.77
2018-12-26T14:33:30.824Z,40.17
2018-12-26T14:36:08.536Z,40.95
2018-12-26T14:38:50.501Z,41.64
2018-12-26T14:41:39.303Z,42.56
2018-12-26T14:44:22.579Z,42.61
2018-12-26T14:46:57.942Z,43.38
2018-12-26T14:49:36.646Z,43.63
2018-12-26T14:52:11.978Z,43.79
2018-12-26T14:55:08.507Z,43.60
2018-12-26T14:57:40.868Z,43.71
2018-12-26T15:00:26.832Z,43.46
2018-12-26T15:03:01.476Z,43.24
2018-12-26T15:05:35.080Z,43.87
2018-12-26T15:08:19.193Z,43.76
2018-12-26T15:11:05.521Z,43.47
2018-12-26T15:13:38.946Z,44.00
2018-12-26T15:16:20.317Z,43.82
2018-12-26T15:19:21.977Z,43.61
2018-12-26T15:21:52.060Z,44.15
2018-12-26T15:24:34.799Z,44.30
2018-12-26T15:27:24.158Z,45.33
2018-12-26T15:30:10.089Z,46.02
2018-12-26T15:32:51.263Z,46.76
2018-12-26T15:35:26.456Z,47.76
2018-12-26T15:38:06.362Z,47.62
2018-12-26T15:40:58.334Z,47.91
2018-12-26T15:43:33.475Z,48.46
2018-12-26T15:46:09.359Z,48.58
2018-12-26T15:48:52.557Z,47.78
2018-12-26T15:51:27.425Z,47.71
2018-12-26T15:54:07.768Z,47.91
2018-12-26T15:56:53.978Z,47.22
2018-12-26T15:59:39.509Z,47.21
2018-12-26T16:02:08.124Z,47.52
2018-12-26T16:04:46.480Z,48.20
2018-12-26T16:07:28.656Z,49.01
2018-12-26T16:10:05.480Z,48.56
2018-12-26T16:12:45.474Z,47.44
2018-12-26T16:15:19.969Z,46.97
2018-12-26T16:18:03.051Z,46.83
2018-12-26T16:20:43.214Z,47.90
2018-12-26T16:23:13.088Z,50.37
2018-12-26T16:25:52.658Z,50.41
2018-12-26T16:28:34.860Z,50.50
2018-12-26T16:31:11.522Z,52.09
2018-12-26T16:33:44.689Z,52.55
2018-12-26T16:36:19.298Z,53.73
2018-12-26T16:39:15.618Z,54.07
2018-12-26T16:41:55.206Z,54.95
2018-12-26T16:44:37.973Z,54.83
2018-12-26T16:47:30.223Z,54.64
2018-12-26T16:50:06.396Z,55.25
2018-12-26T16:52:54.537Z,55.69
2018-12-26T16:55:33.267Z,56.13
2018-12-26T16:58:11.890Z,56.92
2018-12-26T17:00:55.075Z,56.70
2018-12-26T17:03:35.664Z,57.52
2018-12-26T17:06:05.814Z,58.16
2018-12-26T17:08:51.767Z,58.91
2018-12-26T17:11:23.659Z,59.54
2018-12-26T17:14:09.712Z,60.62
2018-12-26T17:16:52.163Z,62.04
2018-12-26T17:19:26.382Z,62.38
2018-12-26T17:22:28.771Z,61.66
2018-12-26T17:25:06.367Z,61.40
2018-12-26T17:27:41.599Z,58.12
2018-12-26T17:30:22.635Z,56.72
2018-12-26T17:33:00.811Z,55.75
2018-12-26T17:35:45.918Z,55.48
2018-12-26T17:38:21.561Z,55.40
2018-12-26T17:41:28.499Z,56.44
2018-12-26T17:44:07.155Z,57.44
2018-12-26T17:46:43.779Z,58.35
2018-12-26T17:49:20.522Z,58.96
2018-12-26T17:52:02.444Z,59.72
2018-12-26T17:55:03.435Z,60.35
2018-12-26T17:57:50.867Z,61.40
2018-12-26T18:01:21.841Z,62.42
2018-12-26T18:04:04.682Z,62.46
2018-12-26T18:06:38.247Z,63.08
2018-12-26T18:09:19.899Z,63.62
2018-12-26T18:11:53.540Z,63.87
2018-12-26T18:14:31.636Z,62.70
2018-12-26T18:17:13.742Z,63.40
2018-12-26T18:19:47.030Z,63.62
2018-12-26T18:22:25.056Z,64.22
2018-12-26T18:25:00.276Z,64.87
2018-12-26T18:27:35.649Z,64.88
2018-12-26T18:30:21.180Z,65.33
2018-12-26T18:32:54.681Z,65.85
2018-12-26T18:35:27.563Z,66.17
2018-12-26T18:38:09.770Z,66.46
2018-12-26T18:40:45.218Z,66.98
2018-12-26T18:43:18.271Z,67.03
2018-12-26T18:46:04.275Z,67.15
2018-12-26T18:48:39.210Z,67.20
2018-12-26T18:51:17.444Z,67.14
2018-12-26T18:53:52.057Z,67.69
2018-12-26T18:56:40.208Z,67.82
2018-12-26T18:59:12.048Z,67.80
2018-12-26T19:01:50.983Z,68.39
2018-12-26T19:04:28.275Z,67.64
2018-12-26T19:07:05.419Z,67.97
2018-12-26T19:09:45.142Z,68.45
2018-12-26T19:12:38.444Z,68.44
2018-12-26T19:15:27.397Z,69.28
2018-12-26T19:18:03.154Z,69.45
2018-12-26T19:21:05.106Z,68.82
2018-12-26T19:23:52.586Z,69.22
2018-12-26T19:26:37.884Z,69.36
2018-12-26T19:29:24.070Z,69.53
2018-12-26T19:32:06.073Z,69.60
2018-12-26T19:34:46.881Z,69.68
2018-12-26T19:37:33.418Z,69.74
2018-12-26T19:40:09.989Z,67.75
2018-12-26T19:42:58.250Z,68.41
2018-12-26T19:45:37.380Z,68.77
2018-12-26T19:48:11.738Z,68.03
2018-12-26T19:50:41.992Z,67.62
2018-12-26T19:53:25.313Z,67.55
2018-12-26T19:56:10.196Z,66.97
2018-12-26T19:58:48.515Z,66.59
2018-12-26T20:04:36.201Z,66.25
2018-12-26T20:07:15.348Z,66.87
2018-12-26T20:10:00.523Z,67.37
2018-12-26T20:12:43.195Z,66.63
2018-12-26T20:15:17.700Z,66.71
2018-12-26T20:17:54.433Z,66.84
2018-12-26T20:20:36.638Z,67.07
2018-12-26T20:23:25.216Z,67.12
2018-12-26T20:26:28.094Z,66.28
2018-12-26T20:29:12.957Z,66.37
2018-12-26T20:31:56.867Z,65.87
2018-12-26T20:34:48.205Z,65.47
2018-12-26T20:37:27.267Z,65.69
2018-12-26T20:40:03.077Z,65.76
2018-12-26T20:42:42.675Z,66.21
2018-12-26T20:45:24.210Z,65.98
2018-12-26T20:48:09.249Z,65.69
2018-12-26T20:51:03.932Z,65.44
2018-12-26T20:53:51.502Z,65.64
2018-12-26T20:56:51.750Z,65.29
2018-12-26T20:59:24.141Z,65.21
2018-12-26T21:01:55.323Z,64.93
2018-12-26T21:04:26.653Z,65.13
2018-12-26T21:07:02.945Z,65.38
2018-12-26T21:09:44.244Z,65.33
2018-12-26T21:12:27.113Z,65.36
2018-12-26T21:15:16.290Z,65.52
2018-12-26T21:17:56.976Z,65.88
2018-12-26T21:20:32.373Z,65.82
2018-12-26T21:23:15.147Z,66.17
2018-12-26T21:25:54.460Z,66.71
2018-12-26T21:28:31.641Z,67.36
2018-12-26T21:31:06.715Z,67.50
2018-12-26T21:33:51.172Z,68.17
2018-12-26T21:36:35.317Z,68.04
2018-12-26T21:39:12.863Z,68.33
2018-12-26T21:41:51.203Z,69.09
2018-12-26T21:44:26.926Z,69.23
2018-12-26T21:47:11.483Z,69.31
2018-12-26T21:49:42.415Z,69.51
2018-12-26T21:52:24.875Z,70.03
2018-12-26T21:55:10.467Z,70.39
2018-12-26T21:57:46.523Z,70.58
2018-12-26T22:00:30.453Z,70.57
2018-12-26T22:03:09.982Z,70.44
2018-12-26T22:05:50.554Z,70.00
2018-12-26T22:08:34.657Z,69.96
2018-12-26T22:11:12.302Z,70.01
2018-12-26T22:14:01.511Z,69.81
2018-12-26T22:16:35.472Z,69.58
2018-12-26T22:19:10.086Z,69.91
2018-12-26T22:21:42.822Z,70.00
2018-12-26T22:24:50.023Z,70.37
2018-12-26T22:27:39.355Z,70.68
2018-12-26T22:30:16.823Z,70.47
2018-12-26T22:33:11.794Z,70.87
2018-12-26T22:35:47.590Z,71.19
2018-12-26T22:38:32.044Z,71.74
2018-12-26T22:41:07.876Z,72.00
2018-12-26T22:43:45.172Z,71.65
2018-12-26T22:46:23.771Z,71.98
2018-12-26T22:48:59.377Z,72.45
2018-12-26T22:51:41.608Z,72.92
2018-12-26T22:54:20.143Z,73.14
2018-12-26T22:56:51.980Z,74.11
2018-12-26T22:59:29.230Z,74.22
2018-12-26T23:02:14.562Z,74.59
2018-12-26T23:04:58.288Z,74.70
2018-12-26T23:07:38.468Z,74.69
2018-12-26T23:10:18.231Z,75.07
2018-12-26T23:13:05.990Z,75.50
2018-12-26T23:15:46.743Z,75.67
2018-12-26T23:18:28.429Z,75.54
2018-12-26T23:21:09.342Z,75.52
2018-12-26T23:23:47.214Z,75.70
2018-12-26T23:26:30.432Z,75.45
2018-12-26T23:29:17.344Z,75.56
2018-12-26T23:31:49.796Z,75.42
2018-12-26T23:34:38.061Z,75.87
2018-12-26T23:37:23.850Z,75.76
2018-12-26T23:40:06.319Z,75.86
2018-12-26T23:42:38.059Z,75.88
2018-12-26T23:45:20.726Z,75.77
2018-12-26T23:47:52.195Z,75.91
2018-12-26T23:50:37.115Z,75.74
2018-12-26T23:53:38.644Z,77.38
2018-12-26T23:56:27.265Z,76.84
2018-12-26T23:59:03.296Z,76.45
